Flugplatz Erbach

Für EDNE sind keine METAR/TAF Berichte vorhanden.
Es werden die Flugwettermeldungen vom Flugplatz Laupheim Airport in 13 km Entfernung angezeigt.

Bericht für ETHL

vom 14.12. um 00:20 UTC

Wind 15 kt aus 220°

Sichtweite 10 km oder mehr

gering bewölkt in 1800 ft

aufgelockert bewölkt in 4000 ft

Temperatur 3.0°C

Taupunkt -2.0°C

Luftfeuchtigkeit 70%

Luftdruck 993 hPa

ETHL 140020Z 22015KT 9999 FEW018 SCT040 03/M02 Q0993 BLU+
Keine Prognose (TAF) verfügbar.
Impressum